Time;durP1;ratioP1;P1;durP2;ratioP2;P2;SDS_P1;SDS_P2;PMS_P1;PMS_P2;Temp;Humidity;BMP_temperature;BMP_pressure;BME280_temperature;BME280_humidity;BME280_pressure;Samples;Min_cycle;Max_cycle;Signal;HPM_P1;HPM_P2
2023/08/26 04:02:50;;;;;;;1.73;1.47;;;19.70;97.30;;;;;;4970765;28;20516;-87
2023/08/26 04:05:16;;;;;;;2.53;2.27;;;19.70;97.30;;;;;;4974230;28;20437;-86
2023/08/26 04:07:43;;;;;;;1.90;1.80;;;19.60;97.30;;;;;;4986067;28;20183;-88
2023/08/26 04:10:10;;;;;;;3.80;1.67;;;19.60;97.30;;;;;;4971776;28;20441;-87
2023/08/26 04:12:41;;;;;;;0.93;0.83;;;19.60;97.30;;;;;;4989102;28;20458;-87
2023/08/26 04:15:08;;;;;;;5.77;1.90;;;19.60;97.30;;;;;;4972248;28;20812;-87
2023/08/26 04:17:34;;;;;;;2.13;1.97;;;19.50;97.30;;;;;;4974282;28;20437;-87
2023/08/26 04:20:00;;;;;;;2.33;2.10;;;19.50;97.30;;;;;;4972493;28;20433;-87
2023/08/26 04:22:25;;;;;;;3.40;1.70;;;19.50;97.30;;;;;;4972487;28;20225;-87
2023/08/26 04:24:51;;;;;;;1.80;1.70;;;19.50;97.30;;;;;;4972621;28;20465;-87
2023/08/26 04:27:16;;;;;;;1.23;1.10;;;19.50;97.30;;;;;;4974055;28;20194;-88
2023/08/26 04:29:42;;;;;;;2.60;1.13;;;19.40;97.30;;;;;;4973825;28;20549;-88
2023/08/26 04:32:08;;;;;;;1.13;1.03;;;19.40;97.30;;;;;;4971905;28;20572;-88
2023/08/26 04:34:34;;;;;;;1.07;0.97;;;19.40;97.30;;;;;;4973396;28;20527;-88
2023/08/26 04:36:59;;;;;;;3.33;2.07;;;19.40;97.30;;;;;;4972211;28;20188;-87
2023/08/26 04:39:25;;;;;;;1.87;1.77;;;19.40;97.30;;;;;;4972349;28;21089;-87
2023/08/26 04:41:50;;;;;;;2.90;1.77;;;19.40;97.30;;;;;;4971895;28;20774;-87
2023/08/26 04:44:19;;;;;;;4.57;1.77;;;19.40;97.30;;;;;;4972050;28;20942;-88
2023/08/26 04:46:45;;;;;;;2.17;1.60;;;19.30;97.30;;;;;;4976006;28;20655;-88
2023/08/26 04:49:11;;;;;;;2.30;1.37;;;19.30;97.30;;;;;;4978942;28;20500;-87
2023/08/26 04:51:38;;;;;;;5.60;1.50;;;19.40;97.30;;;;;;4974736;28;20346;-87
2023/08/26 04:54:04;;;;;;;2.93;1.50;;;19.30;97.30;;;;;;4980619;28;20506;-88
2023/08/26 04:56:30;;;;;;;2.00;1.87;;;19.30;97.30;;;;;;4975425;28;20439;-87
2023/08/26 04:58:56;;;;;;;1.57;1.30;;;19.30;97.30;;;;;;4973785;28;20517;-87
2023/08/26 05:01:21;;;;;;;1.70;1.60;;;19.30;97.30;;;;;;4978580;28;20261;-87
2023/08/26 05:03:47;;;;;;;2.37;1.60;;;19.30;97.30;;;;;;4975705;28;20189;-88
2023/08/26 05:06:13;;;;;;;3.43;3.00;;;19.20;97.30;;;;;;4978564;28;20183;-87
2023/08/26 05:08:38;;;;;;;2.13;1.70;;;19.30;97.30;;;;;;4973599;28;20409;-87
2023/08/26 05:11:06;;;;;;;2.77;2.30;;;19.30;97.30;;;;;;4973609;28;20318;-88
2023/08/26 05:13:31;;;;;;;2.20;1.47;;;19.20;97.30;;;;;;4978438;28;20182;-88
2023/08/26 05:15:57;;;;;;;1.17;1.17;;;19.20;97.30;;;;;;4971289;28;20426;-88
2023/08/26 05:18:22;;;;;;;2.50;1.23;;;19.20;97.30;;;;;;4979605;28;20210;-88
2023/08/26 05:20:48;;;;;;;1.23;1.13;;;19.20;97.30;;;;;;4976236;28;20205;-88
2023/08/26 05:23:14;;;;;;;1.53;1.17;;;19.20;97.30;;;;;;4972530;28;20178;-88
2023/08/26 05:25:43;;;;;;;1.37;1.27;;;19.20;97.30;;;;;;4978071;28;20183;-88
2023/08/26 05:28:09;;;;;;;1.70;1.60;;;19.20;97.30;;;;;;4969934;28;20510;-87
2023/08/26 05:30:35;;;;;;;1.57;1.53;;;19.20;97.30;;;;;;4978519;28;20512;-88
2023/08/26 05:33:00;;;;;;;1.20;1.13;;;19.10;97.30;;;;;;4970689;28;20438;-86
2023/08/26 05:35:26;;;;;;;5.70;1.17;;;19.20;97.30;;;;;;4971163;28;20193;-88
2023/08/26 05:37:52;;;;;;;2.00;1.67;;;19.10;97.30;;;;;;4978625;28;20185;-89
2023/08/26 05:40:17;;;;;;;1.83;1.83;;;19.10;97.30;;;;;;4971962;28;20207;-87
2023/08/26 05:42:43;;;;;;;2.03;1.60;;;19.10;97.30;;;;;;4978272;28;20202;-87
2023/08/26 05:45:09;;;;;;;1.57;1.33;;;19.10;97.30;;;;;;4980627;28;20177;-88
2023/08/26 05:47:35;;;;;;;1.20;1.10;;;19.10;97.30;;;;;;4971194;28;20294;-88
2023/08/26 05:50:01;;;;;;;1.43;1.23;;;19.10;97.30;;;;;;4979262;28;20178;-88
2023/08/26 05:52:26;;;;;;;0.90;0.80;;;19.10;97.30;;;;;;4974013;28;20489;-88
2023/08/26 05:54:52;;;;;;;1.27;1.17;;;19.10;97.30;;;;;;4972901;28;20218;-89
2023/08/26 05:57:17;;;;;;;1.17;1.07;;;19.10;97.30;;;;;;4973269;28;20254;-86
2023/08/26 05:59:43;;;;;;;1.63;1.53;;;19.10;97.30;;;;;;4978907;28;20181;-87
2023/08/26 06:02:08;;;;;;;2.43;1.87;;;19.10;97.30;;;;;;4971680;28;20317;-87
2023/08/26 06:04:34;;;;;;;1.50;1.40;;;19.10;97.30;;;;;;4973634;28;20228;-87
2023/08/26 06:07:00;;;;;;;1.63;1.53;;;19.10;97.30;;;;;;4976864;28;20186;-86
2023/08/26 06:09:26;;;;;;;1.40;1.30;;;19.20;97.30;;;;;;4970590;28;20187;-86
2023/08/26 06:11:52;;;;;;;1.13;1.07;;;19.20;97.30;;;;;;4976360;28;20213;-84
2023/08/26 06:14:17;;;;;;;1.43;1.10;;;19.20;97.30;;;;;;4974144;28;20426;-87
2023/08/26 06:16:43;;;;;;;6.60;1.60;;;19.20;97.30;;;;;;4976485;28;20433;-87
2023/08/26 06:19:09;;;;;;;3.60;2.00;;;19.20;97.30;;;;;;4974247;28;20186;-87
2023/08/26 06:21:34;;;;;;;2.13;1.60;;;19.20;97.30;;;;;;4977057;28;20221;-87
2023/08/26 06:24:00;;;;;;;2.00;1.30;;;19.30;97.30;;;;;;4969776;28;20181;-87
2023/08/26 06:26:25;;;;;;;1.20;1.10;;;19.30;97.30;;;;;;4973340;28;20269;-87
2023/08/26 06:28:51;;;;;;;3.10;1.83;;;19.30;97.30;;;;;;4971097;28;20182;-87
2023/08/26 06:31:17;;;;;;;1.23;1.07;;;19.40;97.30;;;;;;4970606;28;20555;-87
2023/08/26 06:33:43;;;;;;;1.20;1.00;;;19.40;97.30;;;;;;4977816;28;20421;-87
2023/08/26 06:36:09;;;;;;;1.47;1.27;;;19.50;97.30;;;;;;4974528;28;20182;-88
2023/08/26 06:38:34;;;;;;;1.27;1.17;;;19.50;97.30;;;;;;4968210;28;20444;-87
2023/08/26 06:41:00;;;;;;;1.30;1.20;;;19.50;97.30;;;;;;4976686;28;20237;-88
2023/08/26 06:43:28;;;;;;;1.90;1.83;;;19.50;97.30;;;;;;4974894;28;20186;-88
2023/08/26 06:45:53;;;;;;;1.63;1.10;;;19.60;97.30;;;;;;4973671;28;20181;-88
2023/08/26 06:48:19;;;;;;;2.00;1.87;;;19.60;97.30;;;;;;4971133;28;20444;-87
2023/08/26 06:50:49;;;;;;;1.63;1.53;;;19.60;97.30;;;;;;4969314;28;20711;-88
2023/08/26 06:53:20;;;;;;;1.60;1.50;;;19.60;97.30;;;;;;4970322;28;20187;-87
2023/08/26 06:55:47;;;;;;;1.90;1.67;;;19.70;97.30;;;;;;4974196;28;20507;-86
2023/08/26 06:58:12;;;;;;;1.80;1.60;;;19.70;97.30;;;;;;4975029;28;20512;-87
2023/08/26 07:00:38;;;;;;;0.90;0.80;;;19.70;97.30;;;;;;4971705;28;20564;-87
2023/08/26 07:03:03;;;;;;;1.90;1.37;;;19.70;97.30;;;;;;4972600;28;20671;-87
2023/08/26 07:05:29;;;;;;;8.73;1.80;;;19.80;97.30;;;;;;4978347;28;20254;-85
2023/08/26 07:07:55;;;;;;;1.20;1.10;;;19.80;97.30;;;;;;4976918;28;20186;-86
2023/08/26 07:10:21;;;;;;;1.77;1.67;;;19.80;97.30;;;;;;4976336;28;20556;-85
2023/08/26 07:12:46;;;;;;;1.00;0.90;;;19.90;97.30;;;;;;4975089;28;20229;-87
2023/08/26 07:15:12;;;;;;;2.80;2.00;;;19.90;97.30;;;;;;4974860;28;20430;-87
2023/08/26 07:17:37;;;;;;;1.47;1.47;;;20.00;97.30;;;;;;4974505;28;20702;-87
2023/08/26 07:20:03;;;;;;;2.63;1.53;;;20.00;97.30;;;;;;4973458;28;20661;-88
2023/08/26 07:22:29;;;;;;;2.97;2.03;;;20.00;97.30;;;;;;4972526;28;20203;-87
2023/08/26 07:24:54;;;;;;;1.87;1.70;;;20.00;97.30;;;;;;4972534;28;20813;-87
2023/08/26 07:27:20;;;;;;;1.30;1.20;;;20.10;97.30;;;;;;4973279;28;20197;-87
2023/08/26 07:29:45;;;;;;;2.23;1.30;;;20.10;97.30;;;;;;4973880;28;20194;-88
2023/08/26 07:32:11;;;;;;;2.37;1.53;;;20.10;97.30;;;;;;4973376;28;20316;-87
2023/08/26 07:34:37;;;;;;;1.23;1.13;;;20.10;97.30;;;;;;4973372;28;20186;-87
2023/08/26 07:37:02;;;;;;;1.10;1.10;;;20.00;97.30;;;;;;4971702;28;20201;-86
2023/08/26 07:39:29;;;;;;;0.70;0.70;;;20.00;97.30;;;;;;4978518;28;20186;-88
2023/08/26 07:41:55;;;;;;;2.63;2.43;;;19.90;97.30;;;;;;4974027;28;20215;-87
2023/08/26 07:44:20;;;;;;;1.07;1.00;;;19.90;97.30;;;;;;4978643;28;20477;-90
2023/08/26 07:46:46;;;;;;;1.03;0.93;;;20.00;97.30;;;;;;4979512;28;20237;-87
2023/08/26 07:49:12;;;;;;;1.17;1.13;;;19.90;97.30;;;;;;4978542;28;20217;-86
2023/08/26 07:51:37;;;;;;;8.33;1.10;;;20.00;97.30;;;;;;4972804;28;20214;-86
2023/08/26 07:54:03;;;;;;;1.07;1.00;;;20.00;97.30;;;;;;4976032;28;20178;-86
2023/08/26 07:56:29;;;;;;;1.77;1.27;;;20.00;97.30;;;;;;4975879;28;20526;-87
2023/08/26 07:58:54;;;;;;;0.93;0.83;;;20.00;97.30;;;;;;4971296;28;20213;-85
2023/08/26 08:01:20;;;;;;;1.07;0.97;;;20.00;97.30;;;;;;4968368;28;20226;-85
2023/08/26 08:03:46;;;;;;;1.17;0.93;;;20.00;97.30;;;;;;4967226;28;20241;-86
2023/08/26 08:06:11;;;;;;;1.10;1.00;;;20.00;97.30;;;;;;4971255;28;20453;-86
2023/08/26 08:08:37;;;;;;;1.10;1.00;;;20.00;97.30;;;;;;4974671;28;20277;-88
2023/08/26 08:11:03;;;;;;;0.90;0.80;;;20.00;97.30;;;;;;4976149;28;20202;-87
2023/08/26 08:13:29;;;;;;;1.10;1.00;;;20.00;97.30;;;;;;4975433;28;20198;-87
2023/08/26 08:15:54;;;;;;;1.20;1.10;;;20.10;97.30;;;;;;4975821;28;20493;-88
2023/08/26 08:18:20;;;;;;;2.53;1.10;;;20.10;97.30;;;;;;4976729;28;20189;-85
2023/08/26 08:20:45;;;;;;;2.10;1.50;;;20.20;97.30;;;;;;4976880;28;20611;-87
2023/08/26 08:23:11;;;;;;;1.07;1.00;;;20.30;97.30;;;;;;4973826;28;20529;-86
2023/08/26 08:25:36;;;;;;;4.10;1.40;;;20.40;97.30;;;;;;4973758;28;20261;-87
2023/08/26 08:28:02;;;;;;;1.70;0.93;;;20.50;97.30;;;;;;4981533;28;20668;-86
2023/08/26 08:30:28;;;;;;;3.20;2.30;;;20.50;97.30;;;;;;4976952;28;20186;-87
2023/08/26 08:32:53;;;;;;;2.13;1.60;;;20.60;97.30;;;;;;4973888;28;20534;-87
2023/08/26 08:35:19;;;;;;;4.40;2.30;;;20.60;97.30;;;;;;4978024;28;20186;-86
2023/08/26 08:37:45;;;;;;;2.47;2.30;;;20.70;97.30;;;;;;4971400;28;20651;-86
2023/08/26 08:40:11;;;;;;;1.33;1.23;;;20.70;97.30;;;;;;4972983;28;20544;-86
2023/08/26 08:42:39;;;;;;;7.90;3.30;;;20.80;97.30;;;;;;4971847;28;20202;-87
2023/08/26 08:45:06;;;;;;;5.13;2.00;;;20.90;97.30;;;;;;4973177;28;20935;-86
2023/08/26 08:47:33;;;;;;;9.40;3.83;;;21.00;97.30;;;;;;4977130;28;20520;-86
2023/08/26 08:50:00;;;;;;;4.00;2.53;;;21.00;97.30;;;;;;4972817;28;20477;-85
2023/08/26 08:52:27;;;;;;;3.63;1.80;;;21.10;97.30;;;;;;4975888;28;20472;-86
2023/08/26 08:54:52;;;;;;;2.80;2.13;;;21.20;97.30;;;;;;4972095;28;20520;-87
2023/08/26 08:57:23;;;;;;;3.60;2.27;;;21.20;97.30;;;;;;4972815;28;20525;-86
2023/08/26 08:59:49;;;;;;;3.03;1.47;;;21.30;97.30;;;;;;4971731;28;20745;-86
2023/08/26 09:02:15;;;;;;;2.20;2.00;;;21.30;97.30;;;;;;4971968;28;20568;-86
2023/08/26 09:04:41;;;;;;;5.03;2.00;;;21.40;97.30;;;;;;4972303;28;20241;-87
2023/08/26 09:07:11;;;;;;;3.13;1.70;;;21.50;97.30;;;;;;4970668;28;20225;-86
2023/08/26 09:09:37;;;;;;;4.40;2.57;;;21.50;97.30;;;;;;4970138;28;20418;-86
2023/08/26 09:12:05;;;;;;;2.87;2.03;;;21.60;97.30;;;;;;4970403;28;20976;-87
2023/08/26 09:14:31;;;;;;;2.83;1.67;;;21.70;97.30;;;;;;4970090;28;20426;-87
2023/08/26 09:16:56;;;;;;;4.40;1.77;;;21.80;97.30;;;;;;4970572;28;20430;-86
2023/08/26 09:19:22;;;;;;;2.87;1.73;;;21.80;97.30;;;;;;4971371;28;20186;-86
2023/08/26 09:21:51;;;;;;;1.67;1.60;;;21.80;97.30;;;;;;4970168;28;20218;-86
2023/08/26 09:24:17;;;;;;;3.07;2.10;;;21.80;97.30;;;;;;4970819;28;20852;-87
2023/08/26 09:26:47;;;;;;;1.83;1.73;;;21.70;97.30;;;;;;4969975;28;20476;-87
2023/08/26 09:29:21;;;;;;;2.93;2.07;;;21.70;97.30;;;;;;4971317;28;20422;-87
2023/08/26 09:31:49;;;;;;;3.40;2.57;;;21.80;97.30;;;;;;4970557;28;20542;-86
2023/08/26 09:34:24;;;;;;;2.67;2.47;;;22.00;97.30;;;;;;4971307;28;20558;-87
2023/08/26 09:36:50;;;;;;;2.97;2.73;;;22.00;97.30;;;;;;4971061;28;20610;-86
2023/08/26 09:39:16;;;;;;;3.70;1.53;;;22.10;97.30;;;;;;4979675;28;20434;-86
2023/08/26 09:41:43;;;;;;;4.23;2.10;;;22.10;97.30;;;;;;4984578;28;20438;-86
2023/08/26 09:44:12;;;;;;;3.27;1.93;;;22.20;97.30;;;;;;4983996;28;20186;-87
2023/08/26 09:46:39;;;;;;;3.03;2.27;;;22.20;97.30;;;;;;4983106;28;20437;-87
2023/08/26 09:49:05;;;;;;;1.90;1.70;;;22.30;97.30;;;;;;4984121;28;20422;-86
2023/08/26 09:51:31;;;;;;;2.03;1.50;;;22.30;97.30;;;;;;4984804;28;20717;-86
2023/08/26 09:53:58;;;;;;;1.97;1.77;;;22.40;97.30;;;;;;4984260;28;20433;-88
2023/08/26 09:56:26;;;;;;;2.10;1.67;;;22.50;97.30;;;;;;4983891;28;20434;-87
2023/08/26 09:58:55;;;;;;;4.67;1.50;;;22.60;97.30;;;;;;4982091;28;20430;-86
2023/08/26 10:01:23;;;;;;;1.83;1.30;;;22.50;97.30;;;;;;4970490;28;20473;-85
2023/08/26 10:04:09;;;;;;;1.20;1.10;;;22.50;97.30;;;;;;4971157;28;20426;-85
2023/08/26 10:06:41;;;;;;;12.63;1.90;;;22.50;97.30;;;;;;4970732;28;20422;-86
2023/08/26 10:09:15;;;;;;;6.67;1.43;;;22.60;97.30;;;;;;4971994;28;20433;-86
2023/08/26 10:11:43;;;;;;;16.00;2.10;;;22.50;97.30;;;;;;4970565;28;20450;-86
2023/08/26 10:14:13;;;;;;;5.27;2.20;;;22.60;97.30;;;;;;5006136;23;20568;-89
2023/08/26 10:16:41;;;;;;;2.23;1.40;;;22.70;97.30;;;;;;4991456;28;20962;-91
2023/08/26 10:19:07;;;;;;;2.63;1.47;;;22.80;97.30;;;;;;4992157;28;20951;-92
2023/08/26 10:21:34;;;;;;;4.37;2.20;;;22.90;97.30;;;;;;4994179;28;20571;-92
2023/08/26 10:24:01;;;;;;;1.97;1.87;;;23.00;97.30;;;;;;4980720;28;20994;-92
2023/08/26 10:26:27;;;;;;;1.40;1.30;;;23.20;97.30;;;;;;4971889;28;20461;-93
2023/08/26 10:28:55;;;;;;;3.60;1.70;;;23.30;97.30;;;;;;4976208;28;20449;-94
2023/08/26 10:31:35;;;;;;;2.13;1.20;;;23.40;97.30;;;;;;4975561;28;20451;-94
2023/08/26 10:34:33;;;;;;;1.57;1.27;;;23.40;97.30;;;;;;4974194;28;20530;-91
2023/08/26 10:37:01;;;;;;;1.90;1.80;;;23.40;97.30;;;;;;4974430;28;20963;-91
2023/08/26 10:39:54;;;;;;;1.43;1.33;;;23.20;97.30;;;;;;4976403;28;20426;-91
2023/08/26 10:42:23;;;;;;;1.63;1.20;;;23.20;97.30;;;;;;4983137;28;20445;-91
2023/08/26 10:44:57;;;;;;;1.37;1.27;;;23.30;97.30;;;;;;4987275;28;20461;-91
2023/08/26 10:47:45;;;;;;;1.97;1.90;;;23.30;97.30;;;;;;4989357;28;20413;-92
2023/08/26 10:53:23;;;;;;;1.83;1.30;;;23.70;97.30;;;;;;4980991;28;20426;-94
2023/08/26 10:55:53;;;;;;;1.27;1.17;;;23.80;97.30;;;;;;4973532;28;20513;-90
2023/08/26 10:58:22;;;;;;;1.27;1.17;;;23.90;97.30;;;;;;4982279;28;20413;-90
2023/08/26 11:01:03;;;;;;;2.63;1.47;;;23.90;96.40;;;;;;4986294;28;20449;-92
2023/08/26 11:04:04;;;;;;;3.60;1.70;;;23.90;97.20;;;;;;4987824;28;20441;-89
2023/08/26 11:06:43;;;;;;;2.60;1.73;;;23.90;96.90;;;;;;4983494;28;20433;-92
2023/08/26 11:09:41;;;;;;;1.03;1.00;;;24.00;97.10;;;;;;4974909;28;20509;-93
2023/08/26 11:15:09;;;;;;;2.50;1.60;;;24.20;94.70;;;;;;4995189;23;20503;-64
2023/08/26 11:17:36;;;;;;;2.13;1.33;;;24.10;95.20;;;;;;4988005;28;20605;-66
2023/08/26 11:20:01;;;;;;;1.23;1.13;;;24.10;94.70;;;;;;4988339;28;20457;-65
2023/08/26 11:22:27;;;;;;;1.00;0.90;;;24.00;94.10;;;;;;4969135;28;20829;-65
2023/08/26 11:25:15;;;;;;;1.37;1.20;;;24.00;95.90;;;;;;4969109;28;20197;-66
2023/08/26 11:27:41;;;;;;;2.60;1.43;;;24.20;95.30;;;;;;4967462;28;20561;-65
2023/08/26 11:30:08;;;;;;;1.67;1.57;;;24.20;94.20;;;;;;4968980;28;20414;-64
2023/08/26 11:32:36;;;;;;;6.07;1.70;;;24.30;94.20;;;;;;4967839;28;20285;-64
2023/08/26 11:35:05;;;;;;;1.20;1.10;;;24.40;93.90;;;;;;4960456;28;20437;-64
2023/08/26 11:37:41;;;;;;;1.33;1.23;;;24.50;93.90;;;;;;4970631;28;20877;-65
2023/08/26 11:40:08;;;;;;;3.27;1.50;;;24.60;93.20;;;;;;4975351;28;20448;-65
2023/08/26 11:42:34;;;;;;;1.70;1.40;;;24.70;93.70;;;;;;4983931;28;20443;-64
2023/08/26 11:44:59;;;;;;;2.93;1.37;;;24.80;93.10;;;;;;4978561;28;20438;-64
2023/08/26 11:47:25;;;;;;;1.03;0.93;;;24.90;91.50;;;;;;4987305;28;20665;-64
2023/08/26 11:49:58;;;;;;;1.97;1.80;;;24.90;90.50;;;;;;4972468;28;20572;-64
2023/08/26 11:52:37;;;;;;;3.33;1.70;;;24.90;91.80;;;;;;4986275;28;20193;-63
2023/08/26 11:55:04;;;;;;;2.70;1.17;;;25.00;92.40;;;;;;4986561;28;20504;-64
2023/08/26 11:57:35;;;;;;;2.17;2.07;;;25.10;92.10;;;;;;4980323;28;20426;-65
2023/08/26 12:00:17;;;;;;;1.43;1.33;;;25.20;90.30;;;;;;4971559;28;20425;-64
2023/08/26 12:02:46;;;;;;;2.00;1.50;;;25.20;90.60;;;;;;4972847;28;20429;-64
2023/08/26 12:05:14;;;;;;;1.27;1.00;;;25.30;91.00;;;;;;4983468;28;20499;-63
2023/08/26 12:07:57;;;;;;;5.37;1.20;;;25.30;90.20;;;;;;4980034;28;20409;-64
2023/08/26 12:10:23;;;;;;;0.80;0.70;;;25.20;89.30;;;;;;4984211;28;20469;-64
2023/08/26 12:12:48;;;;;;;2.03;1.50;;;25.20;90.90;;;;;;4979810;28;20426;-63
2023/08/26 12:15:16;;;;;;;3.03;1.50;;;25.40;92.20;;;;;;4991338;28;20424;-64
2023/08/26 12:17:43;;;;;;;1.00;0.90;;;25.40;90.60;;;;;;4989975;28;20272;-63
2023/08/26 12:20:20;;;;;;;1.23;1.13;;;25.30;90.60;;;;;;4978932;28;20445;-64
2023/08/26 12:22:46;;;;;;;1.27;1.23;;;25.40;90.10;;;;;;4987970;28;20466;-64
2023/08/26 12:25:16;;;;;;;1.97;1.43;;;25.40;91.50;;;;;;4985145;28;20913;-64
2023/08/26 12:27:42;;;;;;;1.50;1.40;;;25.40;88.80;;;;;;4991660;28;20452;-64
2023/08/26 12:30:08;;;;;;;1.17;1.10;;;25.40;88.70;;;;;;4982362;28;20918;-65
2023/08/26 12:32:35;;;;;;;2.00;1.27;;;25.40;89.00;;;;;;4975513;28;20187;-63
2023/08/26 12:35:00;;;;;;;1.50;1.40;;;25.50;89.60;;;;;;4971904;28;20241;-63
2023/08/26 12:37:26;;;;;;;2.73;1.50;;;25.50;90.20;;;;;;4971845;28;20902;-63
2023/08/26 12:39:52;;;;;;;1.17;1.07;;;25.50;88.80;;;;;;4971497;28;20183;-64
2023/08/26 12:42:17;;;;;;;1.80;0.90;;;25.50;88.00;;;;;;4970242;28;20256;-63
2023/08/26 12:44:43;;;;;;;1.17;1.07;;;25.40;88.40;;;;;;4971662;28;20186;-63
2023/08/26 12:47:09;;;;;;;8.73;1.50;;;25.40;88.60;;;;;;4972965;28;20178;-63
2023/08/26 12:49:34;;;;;;;1.80;1.77;;;25.50;88.50;;;;;;4970848;28;20186;-63
2023/08/26 12:52:00;;;;;;;0.93;0.83;;;25.60;88.90;;;;;;4969968;28;20206;-62
2023/08/26 12:54:26;;;;;;;1.57;1.50;;;25.70;87.90;;;;;;4970791;28;20277;-63
2023/08/26 12:56:51;;;;;;;0.97;0.87;;;25.80;87.90;;;;;;4971402;28;20701;-61
2023/08/26 12:59:17;;;;;;;1.27;1.10;;;25.90;86.80;;;;;;4971522;28;20186;-62
2023/08/26 13:01:42;;;;;;;1.30;1.07;;;25.80;85.60;;;;;;4970734;28;20683;-63
2023/08/26 13:04:08;;;;;;;1.47;1.47;;;25.80;84.40;;;;;;4971861;28;20183;-62
2023/08/26 13:06:34;;;;;;;1.93;1.33;;;25.70;85.00;;;;;;4970101;28;20206;-62
2023/08/26 13:09:00;;;;;;;1.20;1.10;;;25.70;84.90;;;;;;4970780;28;20890;-63
2023/08/26 13:11:25;;;;;;;4.50;1.17;;;25.80;86.10;;;;;;4969760;28;20457;-62
2023/08/26 13:13:51;;;;;;;1.00;0.90;;;25.80;85.40;;;;;;4970435;28;20653;-62
2023/08/26 13:16:16;;;;;;;1.67;1.43;;;25.80;84.60;;;;;;4971378;28;20191;-64
2023/08/26 13:18:43;;;;;;;2.30;1.10;;;25.70;83.80;;;;;;4969752;28;20225;-62
2023/08/26 13:21:09;;;;;;;2.93;1.10;;;25.50;84.60;;;;;;4971226;28;20210;-64
2023/08/26 13:23:34;;;;;;;0.80;0.80;;;25.30;83.20;;;;;;4970571;28;20561;-62
2023/08/26 13:26:00;;;;;;;2.60;1.37;;;25.10;83.90;;;;;;4969704;28;20186;-62
2023/08/26 13:28:26;;;;;;;1.30;1.23;;;25.00;85.00;;;;;;4969472;28;20197;-62
2023/08/26 13:30:51;;;;;;;1.43;1.33;;;25.20;85.10;;;;;;4969246;28;20225;-61
2023/08/26 13:33:17;;;;;;;1.37;1.27;;;25.30;86.70;;;;;;4967401;28;20646;-62
2023/08/26 13:35:42;;;;;;;1.00;0.83;;;25.50;85.20;;;;;;4969285;28;20213;-63
2023/08/26 13:38:08;;;;;;;0.97;0.87;;;25.50;84.20;;;;;;4968499;28;20190;-62
2023/08/26 13:40:33;;;;;;;1.90;1.17;;;25.60;86.20;;;;;;4969963;28;20213;-62
2023/08/26 13:42:59;;;;;;;1.37;1.20;;;25.50;83.80;;;;;;4970724;28;20193;-62
2023/08/26 13:45:25;;;;;;;0.90;0.80;;;25.50;84.60;;;;;;4970569;28;20183;-62
2023/08/26 13:47:50;;;;;;;1.17;1.07;;;25.40;83.60;;;;;;4970130;28;20189;-60
2023/08/26 13:50:16;;;;;;;3.10;2.13;;;25.20;84.20;;;;;;4970343;28;20285;-62
2023/08/26 13:52:41;;;;;;;1.17;1.13;;;25.10;84.80;;;;;;4970537;28;20186;-62
2023/08/26 13:55:08;;;;;;;1.20;1.00;;;24.90;83.90;;;;;;4970087;28;20206;-60
2023/08/26 13:57:35;;;;;;;1.37;1.27;;;24.90;85.60;;;;;;4969852;28;20671;-61
2023/08/26 14:00:01;;;;;;;0.93;0.90;;;24.80;84.20;;;;;;4970597;28;20426;-61
2023/08/26 14:02:28;;;;;;;1.60;1.10;;;24.70;85.60;;;;;;4968330;28;20916;-63
2023/08/26 14:04:53;;;;;;;1.53;1.03;;;24.60;86.10;;;;;;4969862;28;20750;-62
2023/08/26 14:07:19;;;;;;;1.20;1.17;;;24.50;85.80;;;;;;4970439;28;20545;-62
2023/08/26 14:09:44;;;;;;;1.10;1.10;;;24.40;85.40;;;;;;4969280;28;20178;-61
2023/08/26 14:12:11;;;;;;;1.10;1.00;;;24.30;85.30;;;;;;4968779;28;20256;-62
2023/08/26 14:14:36;;;;;;;1.33;1.30;;;24.20;86.00;;;;;;4968500;28;20234;-63
2023/08/26 14:17:02;;;;;;;1.20;1.10;;;24.10;86.10;;;;;;4965987;28;20433;-61
2023/08/26 14:19:27;;;;;;;0.80;0.80;;;24.00;85.20;;;;;;4964490;28;20198;-61
2023/08/26 14:21:53;;;;;;;1.03;1.00;;;23.90;85.60;;;;;;4965705;28;20705;-63
2023/08/26 14:24:19;;;;;;;0.90;0.80;;;23.80;86.10;;;;;;4967352;28;20529;-61
2023/08/26 14:26:44;;;;;;;1.00;0.90;;;23.80;86.10;;;;;;4965156;28;20174;-61
2023/08/26 14:29:10;;;;;;;1.47;1.37;;;23.70;86.00;;;;;;4966962;28;20695;-63
2023/08/26 14:31:35;;;;;;;1.10;1.00;;;23.70;86.40;;;;;;4968466;28;20686;-62
2023/08/26 14:34:01;;;;;;;3.93;1.43;;;23.60;86.10;;;;;;4969537;28;20593;-65
2023/08/26 14:36:26;;;;;;;1.80;1.00;;;23.50;85.10;;;;;;4969680;28;20249;-63
2023/08/26 14:38:53;;;;;;;1.20;1.10;;;23.40;85.40;;;;;;4968953;28;20244;-62
2023/08/26 14:41:19;;;;;;;1.50;0.90;;;23.30;86.20;;;;;;4969713;28;20203;-61
2023/08/26 14:43:44;;;;;;;1.37;0.90;;;23.30;86.40;;;;;;4969527;28;20419;-61
2023/08/26 14:46:10;;;;;;;0.90;0.80;;;23.30;87.20;;;;;;4969695;28;20225;-62
2023/08/26 14:48:36;;;;;;;1.00;1.00;;;23.30;86.10;;;;;;4969506;28;20195;-64
2023/08/26 14:51:02;;;;;;;0.90;0.80;;;23.30;86.60;;;;;;4970617;28;20504;-62
2023/08/26 14:53:27;;;;;;;1.03;0.93;;;23.30;86.60;;;;;;4969488;28;20214;-64
2023/08/26 14:56:02;;;;;;;1.17;1.10;;;23.30;86.30;;;;;;4971205;28;20842;-63
2023/08/26 14:58:29;;;;;;;1.20;1.20;;;23.20;86.10;;;;;;4969301;28;20228;-62
2023/08/26 15:00:54;;;;;;;1.53;1.33;;;23.10;86.30;;;;;;4966063;28;20519;-62
2023/08/26 15:03:20;;;;;;;1.50;1.10;;;23.10;86.10;;;;;;4968136;28;20438;-61
2023/08/26 15:06:12;;;;;;;1.20;1.20;;;23.00;86.70;;;;;;4969747;28;20183;-62
2023/08/26 15:08:38;;;;;;;1.27;1.20;;;22.90;86.20;;;;;;4968637;28;20738;-62
2023/08/26 15:11:03;;;;;;;0.90;0.80;;;22.90;86.00;;;;;;4968005;28;20497;-62
2023/08/26 15:13:29;;;;;;;1.10;1.00;;;22.90;86.40;;;;;;4969345;28;20226;-62
2023/08/26 15:15:55;;;;;;;1.13;1.03;;;22.90;86.60;;;;;;4970918;28;20195;-60
2023/08/26 15:18:20;;;;;;;1.87;1.00;;;22.90;85.90;;;;;;4973038;28;20269;-59
2023/08/26 15:20:48;;;;;;;1.03;0.93;;;22.80;85.50;;;;;;4973071;28;20247;-61
2023/08/26 15:23:15;;;;;;;1.90;1.20;;;22.80;85.90;;;;;;4973061;28;20179;-61
2023/08/26 15:25:43;;;;;;;1.00;0.90;;;22.80;86.60;;;;;;4973003;28;20449;-61
2023/08/26 15:28:10;;;;;;;2.70;0.90;;;22.80;86.50;;;;;;4971676;28;20914;-63
2023/08/26 15:30:36;;;;;;;0.70;0.70;;;22.70;86.30;;;;;;4972909;28;20508;-64
2023/08/26 15:33:02;;;;;;;12.60;1.10;;;22.70;85.70;;;;;;4973002;28;20920;-62
2023/08/26 15:35:28;;;;;;;1.73;1.63;;;22.60;85.50;;;;;;4972527;28;20421;-64
2023/08/26 15:37:54;;;;;;;0.93;0.83;;;22.60;85.40;;;;;;4974131;28;20917;-62
2023/08/26 15:40:20;;;;;;;1.97;1.40;;;22.50;85.50;;;;;;4972317;28;20425;-62
2023/08/26 15:42:46;;;;;;;0.70;0.70;;;22.50;85.70;;;;;;4972635;28;20201;-62
2023/08/26 15:45:12;;;;;;;1.33;1.10;;;22.40;86.20;;;;;;4971095;28;20190;-62
2023/08/26 15:47:38;;;;;;;1.50;1.00;;;22.40;86.40;;;;;;4971461;28;20449;-62
2023/08/26 15:50:04;;;;;;;1.13;1.03;;;22.40;86.20;;;;;;4971611;28;20818;-62
2023/08/26 15:52:30;;;;;;;1.10;1.00;;;22.30;85.60;;;;;;4972143;28;20571;-63
2023/08/26 15:54:55;;;;;;;2.90;0.90;;;22.30;86.20;;;;;;4973190;28;20917;-61
2023/08/26 15:57:21;;;;;;;0.90;0.80;;;22.20;85.40;;;;;;4973921;28;20190;-61
2023/08/26 15:59:46;;;;;;;0.90;0.80;;;22.20;85.50;;;;;;4973806;28;20178;-61
2023/08/26 16:02:12;;;;;;;1.10;1.03;;;22.20;86.00;;;;;;4973119;28;20781;-60
2023/08/26 16:04:38;;;;;;;1.00;0.90;;;22.20;84.90;;;;;;4972284;28;20190;-61
2023/08/26 16:07:04;;;;;;;1.20;1.17;;;22.20;85.40;;;;;;4973618;28;20187;-60
2023/08/26 16:09:30;;;;;;;1.00;0.90;;;22.20;85.60;;;;;;4973224;28;20414;-62
2023/08/26 16:11:56;;;;;;;1.40;1.33;;;22.20;85.60;;;;;;4970663;28;20206;-61
2023/08/26 16:14:22;;;;;;;1.10;1.00;;;22.20;85.50;;;;;;4993035;23;20566;-87
2023/08/26 16:16:49;;;;;;;0.90;0.80;;;22.20;85.40;;;;;;4991715;28;20410;-87
2023/08/26 16:19:15;;;;;;;1.10;1.00;;;22.10;85.90;;;;;;4992034;28;20468;-87
2023/08/26 16:21:40;;;;;;;1.53;1.00;;;22.10;85.40;;;;;;4997647;28;20448;-86
2023/08/26 16:24:06;;;;;;;2.90;1.10;;;22.10;85.20;;;;;;4986943;28;20638;-87
2023/08/26 16:26:32;;;;;;;1.33;1.13;;;22.10;85.20;;;;;;4980232;28;20229;-87
2023/08/26 16:28:57;;;;;;;1.10;1.00;;;22.10;85.80;;;;;;4972653;28;20201;-86
2023/08/26 16:31:23;;;;;;;1.10;1.00;;;22.10;86.50;;;;;;4982661;28;20559;-87
2023/08/26 16:33:49;;;;;;;1.57;1.00;;;22.10;86.40;;;;;;4975981;28;20643;-87
2023/08/26 16:36:15;;;;;;;1.27;1.10;;;22.10;86.00;;;;;;4983022;28;20202;-88
2023/08/26 16:38:41;;;;;;;1.27;1.20;;;22.00;86.00;;;;;;4977424;28;20481;-89
2023/08/26 16:41:06;;;;;;;1.03;0.93;;;22.00;85.70;;;;;;4971844;28;20628;-86
2023/08/26 16:43:32;;;;;;;1.20;1.10;;;22.00;85.30;;;;;;4979579;28;20260;-88
2023/08/26 16:45:58;;;;;;;0.70;0.70;;;21.90;85.00;;;;;;4971480;28;20171;-87
2023/08/26 16:48:25;;;;;;;0.80;0.70;;;21.90;85.40;;;;;;4972380;28;20177;-89
2023/08/26 16:50:51;;;;;;;0.70;0.70;;;21.90;85.90;;;;;;4978934;28;20455;-89
2023/08/26 16:53:17;;;;;;;1.70;1.20;;;21.90;85.80;;;;;;4972724;28;20433;-89